sensor_id;sensor_type;location;lat;lon;timestamp;P1;durP1;ratioP1;P2;durP2;ratioP2
9330;SDS011;4704;50.470;12.072;2023-03-05T00:02:13;14.10;;;12.70;;
9330;SDS011;4704;50.470;12.072;2023-03-05T00:04:40;14.48;;;13.07;;
9330;SDS011;4704;50.470;12.072;2023-03-05T00:07:08;14.32;;;12.93;;
9330;SDS011;4704;50.470;12.072;2023-03-05T00:09:37;13.15;;;11.90;;
9330;SDS011;4704;50.470;12.072;2023-03-05T00:12:05;13.43;;;12.20;;
9330;SDS011;4704;50.470;12.072;2023-03-05T00:14:33;12.15;;;11.05;;
9330;SDS011;4704;50.470;12.072;2023-03-05T00:17:00;12.98;;;11.68;;
9330;SDS011;4704;50.470;12.072;2023-03-05T00:19:28;11.82;;;10.73;;
9330;SDS011;4704;50.470;12.072;2023-03-05T00:21:56;12.10;;;10.82;;
9330;SDS011;4704;50.470;12.072;2023-03-05T00:24:23;11.07;;;9.88;;
9330;SDS011;4704;50.470;12.072;2023-03-05T00:26:52;10.98;;;9.85;;
9330;SDS011;4704;50.470;12.072;2023-03-05T00:29:20;11.50;;;10.30;;
9330;SDS011;4704;50.470;12.072;2023-03-05T00:31:47;11.63;;;9.95;;
9330;SDS011;4704;50.470;12.072;2023-03-05T00:34:15;10.18;;;9.15;;
9330;SDS011;4704;50.470;12.072;2023-03-05T00:36:44;10.02;;;9.02;;
9330;SDS011;4704;50.470;12.072;2023-03-05T00:39:12;10.20;;;8.77;;
9330;SDS011;4704;50.470;12.072;2023-03-05T00:41:41;9.95;;;8.32;;
9330;SDS011;4704;50.470;12.072;2023-03-05T00:44:10;10.35;;;9.07;;
9330;SDS011;4704;50.470;12.072;2023-03-05T00:46:38;9.45;;;8.55;;
9330;SDS011;4704;50.470;12.072;2023-03-05T00:49:06;8.10;;;7.30;;
9330;SDS011;4704;50.470;12.072;2023-03-05T00:51:33;9.30;;;8.30;;
9330;SDS011;4704;50.470;12.072;2023-03-05T00:54:02;7.68;;;7.00;;
9330;SDS011;4704;50.470;12.072;2023-03-05T00:56:29;8.55;;;7.68;;
9330;SDS011;4704;50.470;12.072;2023-03-05T00:58:57;7.90;;;7.10;;
9330;SDS011;4704;50.470;12.072;2023-03-05T01:01:25;8.23;;;7.43;;
9330;SDS011;4704;50.470;12.072;2023-03-05T01:03:53;8.30;;;6.88;;
9330;SDS011;4704;50.470;12.072;2023-03-05T01:06:23;7.72;;;6.68;;
9330;SDS011;4704;50.470;12.072;2023-03-05T01:08:51;7.10;;;6.38;;
9330;SDS011;4704;50.470;12.072;2023-03-05T01:11:18;6.68;;;6.07;;
9330;SDS011;4704;50.470;12.072;2023-03-05T01:13:46;6.80;;;6.18;;
9330;SDS011;4704;50.470;12.072;2023-03-05T01:16:13;6.82;;;6.10;;
9330;SDS011;4704;50.470;12.072;2023-03-05T01:18:42;8.10;;;5.82;;
9330;SDS011;4704;50.470;12.072;2023-03-05T01:21:10;6.55;;;5.85;;
9330;SDS011;4704;50.470;12.072;2023-03-05T01:23:37;6.40;;;5.80;;
9330;SDS011;4704;50.470;12.072;2023-03-05T01:26:05;6.05;;;5.45;;
9330;SDS011;4704;50.470;12.072;2023-03-05T01:28:33;5.57;;;5.03;;
9330;SDS011;4704;50.470;12.072;2023-03-05T01:31:05;5.72;;;5.13;;
9330;SDS011;4704;50.470;12.072;2023-03-05T01:33:32;5.25;;;4.75;;
9330;SDS011;4704;50.470;12.072;2023-03-05T01:36:01;5.07;;;4.60;;
9330;SDS011;4704;50.470;12.072;2023-03-05T01:38:32;5.40;;;4.82;;
9330;SDS011;4704;50.470;12.072;2023-03-05T01:40:59;4.63;;;4.18;;
9330;SDS011;4704;50.470;12.072;2023-03-05T01:43:28;4.90;;;4.40;;
9330;SDS011;4704;50.470;12.072;2023-03-05T01:49:07;4.90;;;4.40;;
9330;SDS011;4704;50.470;12.072;2023-03-05T01:51:38;4.40;;;4.00;;
9330;SDS011;4704;50.470;12.072;2023-03-05T01:54:06;4.38;;;3.97;;
9330;SDS011;4704;50.470;12.072;2023-03-05T01:56:34;4.15;;;3.75;;
9330;SDS011;4704;50.470;12.072;2023-03-05T01:59:02;4.53;;;3.65;;
9330;SDS011;4704;50.470;12.072;2023-03-05T02:01:31;4.70;;;3.78;;
9330;SDS011;4704;50.470;12.072;2023-03-05T02:03:59;4.97;;;3.90;;
9330;SDS011;4704;50.470;12.072;2023-03-05T02:06:27;3.90;;;3.60;;
9330;SDS011;4704;50.470;12.072;2023-03-05T02:08:57;4.32;;;3.92;;
9330;SDS011;4704;50.470;12.072;2023-03-05T02:11:25;3.63;;;3.33;;
9330;SDS011;4704;50.470;12.072;2023-03-05T02:13:53;3.67;;;3.15;;
9330;SDS011;4704;50.470;12.072;2023-03-05T02:16:20;3.40;;;2.95;;
9330;SDS011;4704;50.470;12.072;2023-03-05T02:18:48;3.47;;;3.17;;
9330;SDS011;4704;50.470;12.072;2023-03-05T02:21:17;3.55;;;3.25;;
9330;SDS011;4704;50.470;12.072;2023-03-05T02:23:53;4.70;;;3.28;;
9330;SDS011;4704;50.470;12.072;2023-03-05T02:26:20;3.15;;;2.85;;
9330;SDS011;4704;50.470;12.072;2023-03-05T02:28:48;3.33;;;3.03;;
9330;SDS011;4704;50.470;12.072;2023-03-05T02:31:17;3.00;;;2.70;;
9330;SDS011;4704;50.470;12.072;2023-03-05T02:33:45;2.67;;;2.42;;
9330;SDS011;4704;50.470;12.072;2023-03-05T02:36:12;2.92;;;2.63;;
9330;SDS011;4704;50.470;12.072;2023-03-05T02:38:43;2.60;;;2.25;;
9330;SDS011;4704;50.470;12.072;2023-03-05T02:41:12;3.78;;;2.58;;
9330;SDS011;4704;50.470;12.072;2023-03-05T02:43:39;9.43;;;2.33;;
9330;SDS011;4704;50.470;12.072;2023-03-05T02:46:07;2.95;;;2.70;;
9330;SDS011;4704;50.470;12.072;2023-03-05T02:48:34;3.15;;;2.33;;
9330;SDS011;4704;50.470;12.072;2023-03-05T02:51:02;3.13;;;2.38;;
9330;SDS011;4704;50.470;12.072;2023-03-05T02:53:29;2.50;;;2.30;;
9330;SDS011;4704;50.470;12.072;2023-03-05T02:55:58;2.40;;;2.20;;
9330;SDS011;4704;50.470;12.072;2023-03-05T02:58:26;2.60;;;2.40;;
9330;SDS011;4704;50.470;12.072;2023-03-05T03:00:53;4.30;;;2.50;;
9330;SDS011;4704;50.470;12.072;2023-03-05T03:03:21;2.47;;;2.10;;
9330;SDS011;4704;50.470;12.072;2023-03-05T03:05:48;2.20;;;2.00;;
9330;SDS011;4704;50.470;12.072;2023-03-05T03:08:18;2.28;;;1.95;;
9330;SDS011;4704;50.470;12.072;2023-03-05T03:10:45;2.72;;;2.05;;
9330;SDS011;4704;50.470;12.072;2023-03-05T03:13:14;2.47;;;2.28;;
9330;SDS011;4704;50.470;12.072;2023-03-05T03:15:41;2.20;;;2.00;;
9330;SDS011;4704;50.470;12.072;2023-03-05T03:18:09;2.00;;;1.80;;
9330;SDS011;4704;50.470;12.072;2023-03-05T03:20:37;2.10;;;1.83;;
9330;SDS011;4704;50.470;12.072;2023-03-05T03:23:04;2.28;;;2.08;;
9330;SDS011;4704;50.470;12.072;2023-03-05T03:25:32;2.30;;;2.05;;
9330;SDS011;4704;50.470;12.072;2023-03-05T03:28:00;1.70;;;1.60;;
9330;SDS011;4704;50.470;12.072;2023-03-05T03:30:29;2.63;;;1.77;;
9330;SDS011;4704;50.470;12.072;2023-03-05T03:32:56;1.92;;;1.70;;
9330;SDS011;4704;50.470;12.072;2023-03-05T03:35:24;2.20;;;1.67;;
9330;SDS011;4704;50.470;12.072;2023-03-05T03:37:51;2.25;;;1.63;;
9330;SDS011;4704;50.470;12.072;2023-03-05T03:40:19;1.90;;;1.60;;
9330;SDS011;4704;50.470;12.072;2023-03-05T03:42:46;1.60;;;1.50;;
9330;SDS011;4704;50.470;12.072;2023-03-05T03:45:14;1.70;;;1.60;;
9330;SDS011;4704;50.470;12.072;2023-03-05T03:47:43;1.65;;;1.55;;
9330;SDS011;4704;50.470;12.072;2023-03-05T03:50:11;1.85;;;1.42;;
9330;SDS011;4704;50.470;12.072;2023-03-05T03:52:38;1.80;;;1.50;;
9330;SDS011;4704;50.470;12.072;2023-03-05T03:55:06;1.50;;;1.40;;
9330;SDS011;4704;50.470;12.072;2023-03-05T03:57:33;1.40;;;1.30;;
9330;SDS011;4704;50.470;12.072;2023-03-05T04:00:01;1.70;;;1.60;;
9330;SDS011;4704;50.470;12.072;2023-03-05T04:02:31;1.92;;;1.60;;
9330;SDS011;4704;50.470;12.072;2023-03-05T04:05:00;1.50;;;1.40;;
9330;SDS011;4704;50.470;12.072;2023-03-05T04:07:27;1.30;;;1.20;;
9330;SDS011;4704;50.470;12.072;2023-03-05T04:09:54;1.42;;;1.30;;
9330;SDS011;4704;50.470;12.072;2023-03-05T04:12:22;2.28;;;1.33;;
9330;SDS011;4704;50.470;12.072;2023-03-05T04:14:50;1.33;;;1.23;;
9330;SDS011;4704;50.470;12.072;2023-03-05T04:17:17;1.40;;;1.20;;
9330;SDS011;4704;50.470;12.072;2023-03-05T04:19:45;1.60;;;1.20;;
9330;SDS011;4704;50.470;12.072;2023-03-05T04:22:14;1.30;;;1.10;;
9330;SDS011;4704;50.470;12.072;2023-03-05T04:24:41;1.10;;;1.00;;
9330;SDS011;4704;50.470;12.072;2023-03-05T04:27:09;1.30;;;1.00;;
9330;SDS011;4704;50.470;12.072;2023-03-05T04:29:37;1.40;;;1.10;;
9330;SDS011;4704;50.470;12.072;2023-03-05T04:32:04;1.30;;;1.20;;
9330;SDS011;4704;50.470;12.072;2023-03-05T04:34:32;1.17;;;1.00;;
9330;SDS011;4704;50.470;12.072;2023-03-05T04:36:59;1.27;;;1.17;;
9330;SDS011;4704;50.470;12.072;2023-03-05T04:39:28;1.30;;;1.20;;
9330;SDS011;4704;50.470;12.072;2023-03-05T04:41:56;1.17;;;1.00;;
9330;SDS011;4704;50.470;12.072;2023-03-05T04:44:23;1.20;;;1.08;;
9330;SDS011;4704;50.470;12.072;2023-03-05T04:46:51;1.20;;;1.10;;
9330;SDS011;4704;50.470;12.072;2023-03-05T04:49:19;0.93;;;0.88;;
9330;SDS011;4704;50.470;12.072;2023-03-05T04:51:46;1.10;;;0.80;;
9330;SDS011;4704;50.470;12.072;2023-03-05T04:54:14;1.20;;;0.90;;
9330;SDS011;4704;50.470;12.072;2023-03-05T04:56:43;0.95;;;0.77;;
9330;SDS011;4704;50.470;12.072;2023-03-05T04:59:10;1.05;;;0.80;;
9330;SDS011;4704;50.470;12.072;2023-03-05T05:01:39;0.95;;;0.85;;
9330;SDS011;4704;50.470;12.072;2023-03-05T05:04:07;1.27;;;1.02;;
9330;SDS011;4704;50.470;12.072;2023-03-05T05:06:34;1.00;;;0.90;;
9330;SDS011;4704;50.470;12.072;2023-03-05T05:09:02;1.77;;;0.82;;
9330;SDS011;4704;50.470;12.072;2023-03-05T05:11:30;0.95;;;0.73;;
9330;SDS011;4704;50.470;12.072;2023-03-05T05:13:59;1.00;;;0.70;;
9330;SDS011;4704;50.470;12.072;2023-03-05T05:16:26;1.20;;;0.88;;
9330;SDS011;4704;50.470;12.072;2023-03-05T05:18:53;1.42;;;0.90;;
9330;SDS011;4704;50.470;12.072;2023-03-05T05:21:21;0.80;;;0.70;;
9330;SDS011;4704;50.470;12.072;2023-03-05T05:23:48;1.00;;;1.00;;
9330;SDS011;4704;50.470;12.072;2023-03-05T05:26:16;0.88;;;0.60;;
9330;SDS011;4704;50.470;12.072;2023-03-05T05:28:43;1.30;;;0.80;;
9330;SDS011;4704;50.470;12.072;2023-03-05T05:31:13;0.85;;;0.70;;
9330;SDS011;4704;50.470;12.072;2023-03-05T05:33:41;1.05;;;0.95;;
9330;SDS011;4704;50.470;12.072;2023-03-05T05:36:10;0.85;;;0.70;;
9330;SDS011;4704;50.470;12.072;2023-03-05T05:38:37;1.00;;;0.80;;
9330;SDS011;4704;50.470;12.072;2023-03-05T05:41:06;1.08;;;0.70;;
9330;SDS011;4704;50.470;12.072;2023-03-05T05:43:33;0.80;;;0.70;;
9330;SDS011;4704;50.470;12.072;2023-03-05T05:46:02;1.15;;;0.75;;
9330;SDS011;4704;50.470;12.072;2023-03-05T05:48:31;0.88;;;0.80;;
9330;SDS011;4704;50.470;12.072;2023-03-05T05:50:59;1.08;;;0.70;;
9330;SDS011;4704;50.470;12.072;2023-03-05T05:53:30;0.68;;;0.55;;
9330;SDS011;4704;50.470;12.072;2023-03-05T05:55:58;1.08;;;0.70;;
9330;SDS011;4704;50.470;12.072;2023-03-05T05:58:25;1.02;;;0.73;;
9330;SDS011;4704;50.470;12.072;2023-03-05T06:00:53;0.80;;;0.70;;
9330;SDS011;4704;50.470;12.072;2023-03-05T06:03:20;0.50;;;0.50;;
9330;SDS011;4704;50.470;12.072;2023-03-05T06:05:49;0.65;;;0.52;;
9330;SDS011;4704;50.470;12.072;2023-03-05T06:08:17;0.80;;;0.50;;
9330;SDS011;4704;50.470;12.072;2023-03-05T06:10:51;1.20;;;0.63;;
9330;SDS011;4704;50.470;12.072;2023-03-05T06:13:19;1.05;;;0.75;;
9330;SDS011;4704;50.470;12.072;2023-03-05T06:15:53;0.68;;;0.68;;
9330;SDS011;4704;50.470;12.072;2023-03-05T06:18:21;0.77;;;0.50;;
9330;SDS011;4704;50.470;12.072;2023-03-05T06:20:54;0.52;;;0.47;;
9330;SDS011;4704;50.470;12.072;2023-03-05T06:23:21;0.65;;;0.60;;
9330;SDS011;4704;50.470;12.072;2023-03-05T06:25:49;0.85;;;0.55;;
9330;SDS011;4704;50.470;12.072;2023-03-05T06:28:17;0.70;;;0.70;;
9330;SDS011;4704;50.470;12.072;2023-03-05T06:30:44;0.57;;;0.47;;
9330;SDS011;4704;50.470;12.072;2023-03-05T06:33:12;0.88;;;0.60;;
9330;SDS011;4704;50.470;12.072;2023-03-05T06:35:39;0.55;;;0.50;;
9330;SDS011;4704;50.470;12.072;2023-03-05T06:38:08;0.93;;;0.73;;
9330;SDS011;4704;50.470;12.072;2023-03-05T06:40:37;0.50;;;0.50;;
9330;SDS011;4704;50.470;12.072;2023-03-05T06:43:05;0.60;;;0.50;;
9330;SDS011;4704;50.470;12.072;2023-03-05T06:45:32;0.60;;;0.50;;
9330;SDS011;4704;50.470;12.072;2023-03-05T06:48:00;0.50;;;0.40;;
9330;SDS011;4704;50.470;12.072;2023-03-05T06:50:27;0.80;;;0.50;;
9330;SDS011;4704;50.470;12.072;2023-03-05T06:52:55;0.77;;;0.40;;
9330;SDS011;4704;50.470;12.072;2023-03-05T06:55:24;0.80;;;0.60;;
9330;SDS011;4704;50.470;12.072;2023-03-05T06:57:51;0.88;;;0.70;;
9330;SDS011;4704;50.470;12.072;2023-03-05T07:00:19;0.60;;;0.40;;
9330;SDS011;4704;50.470;12.072;2023-03-05T07:02:48;0.60;;;0.50;;
9330;SDS011;4704;50.470;12.072;2023-03-05T07:05:15;0.50;;;0.40;;
9330;SDS011;4704;50.470;12.072;2023-03-05T07:07:43;0.50;;;0.40;;
9330;SDS011;4704;50.470;12.072;2023-03-05T07:10:10;0.70;;;0.50;;
9330;SDS011;4704;50.470;12.072;2023-03-05T07:12:40;0.30;;;0.30;;
9330;SDS011;4704;50.470;12.072;2023-03-05T07:15:07;0.95;;;0.40;;
9330;SDS011;4704;50.470;12.072;2023-03-05T07:17:35;0.60;;;0.60;;
9330;SDS011;4704;50.470;12.072;2023-03-05T07:20:02;0.70;;;0.45;;
9330;SDS011;4704;50.470;12.072;2023-03-05T07:22:30;0.60;;;0.45;;
9330;SDS011;4704;50.470;12.072;2023-03-05T07:24:58;0.50;;;0.47;;
9330;SDS011;4704;50.470;12.072;2023-03-05T07:27:25;0.82;;;0.50;;
9330;SDS011;4704;50.470;12.072;2023-03-05T07:29:54;0.60;;;0.50;;
9330;SDS011;4704;50.470;12.072;2023-03-05T07:32:21;0.40;;;0.40;;
9330;SDS011;4704;50.470;12.072;2023-03-05T07:34:49;0.43;;;0.40;;
9330;SDS011;4704;50.470;12.072;2023-03-05T07:37:16;0.50;;;0.50;;
9330;SDS011;4704;50.470;12.072;2023-03-05T07:39:44;0.60;;;0.50;;
9330;SDS011;4704;50.470;12.072;2023-03-05T07:42:11;0.43;;;0.32;;
9330;SDS011;4704;50.470;12.072;2023-03-05T07:44:39;0.40;;;0.40;;
9330;SDS011;4704;50.470;12.072;2023-03-05T07:47:08;1.10;;;0.60;;
9330;SDS011;4704;50.470;12.072;2023-03-05T07:49:35;0.65;;;0.40;;
9330;SDS011;4704;50.470;12.072;2023-03-05T07:52:05;0.40;;;0.40;;
9330;SDS011;4704;50.470;12.072;2023-03-05T07:54:32;0.47;;;0.45;;
9330;SDS011;4704;50.470;12.072;2023-03-05T07:57:01;0.63;;;0.40;;
9330;SDS011;4704;50.470;12.072;2023-03-05T07:59:29;0.60;;;0.50;;
9330;SDS011;4704;50.470;12.072;2023-03-05T08:01:57;0.60;;;0.50;;
9330;SDS011;4704;50.470;12.072;2023-03-05T08:04:26;0.50;;;0.50;;
9330;SDS011;4704;50.470;12.072;2023-03-05T08:06:56;0.50;;;0.40;;
9330;SDS011;4704;50.470;12.072;2023-03-05T08:09:24;1.27;;;0.40;;
9330;SDS011;4704;50.470;12.072;2023-03-05T08:11:51;0.65;;;0.40;;
9330;SDS011;4704;50.470;12.072;2023-03-05T08:14:18;0.40;;;0.40;;
9330;SDS011;4704;50.470;12.072;2023-03-05T08:16:46;0.30;;;0.22;;
9330;SDS011;4704;50.470;12.072;2023-03-05T08:19:16;0.35;;;0.30;;
9330;SDS011;4704;50.470;12.072;2023-03-05T08:21:45;0.60;;;0.50;;
9330;SDS011;4704;50.470;12.072;2023-03-05T08:24:13;0.40;;;0.40;;
9330;SDS011;4704;50.470;12.072;2023-03-05T08:26:41;0.85;;;0.50;;
9330;SDS011;4704;50.470;12.072;2023-03-05T08:29:08;0.40;;;0.40;;
9330;SDS011;4704;50.470;12.072;2023-03-05T08:31:36;0.40;;;0.40;;
9330;SDS011;4704;50.470;12.072;2023-03-05T08:34:04;0.50;;;0.40;;
9330;SDS011;4704;50.470;12.072;2023-03-05T08:36:32;0.60;;;0.40;;
9330;SDS011;4704;50.470;12.072;2023-03-05T08:39:01;0.50;;;0.40;;
9330;SDS011;4704;50.470;12.072;2023-03-05T08:41:30;0.55;;;0.40;;
9330;SDS011;4704;50.470;12.072;2023-03-05T08:43:58;0.55;;;0.40;;
9330;SDS011;4704;50.470;12.072;2023-03-05T08:46:25;0.30;;;0.30;;
9330;SDS011;4704;50.470;12.072;2023-03-05T08:48:53;0.40;;;0.40;;
9330;SDS011;4704;50.470;12.072;2023-03-05T08:51:22;0.40;;;0.35;;
9330;SDS011;4704;50.470;12.072;2023-03-05T08:53:50;0.40;;;0.40;;
9330;SDS011;4704;50.470;12.072;2023-03-05T08:56:19;0.50;;;0.40;;
9330;SDS011;4704;50.470;12.072;2023-03-05T08:58:46;0.50;;;0.50;;
9330;SDS011;4704;50.470;12.072;2023-03-05T09:01:16;1.30;;;0.40;;
9330;SDS011;4704;50.470;12.072;2023-03-05T09:03:43;0.90;;;0.40;;
9330;SDS011;4704;50.470;12.072;2023-03-05T09:06:11;0.50;;;0.40;;
9330;SDS011;4704;50.470;12.072;2023-03-05T09:08:38;0.47;;;0.40;;
9330;SDS011;4704;50.470;12.072;2023-03-05T09:11:07;2.05;;;0.50;;
9330;SDS011;4704;50.470;12.072;2023-03-05T09:13:37;0.60;;;0.38;;
9330;SDS011;4704;50.470;12.072;2023-03-05T09:16:04;0.68;;;0.40;;
9330;SDS011;4704;50.470;12.072;2023-03-05T09:18:33;0.73;;;0.40;;
9330;SDS011;4704;50.470;12.072;2023-03-05T09:21:02;2.05;;;0.47;;
9330;SDS011;4704;50.470;12.072;2023-03-05T09:23:30;1.05;;;0.40;;
9330;SDS011;4704;50.470;12.072;2023-03-05T09:25:58;0.60;;;0.43;;
9330;SDS011;4704;50.470;12.072;2023-03-05T09:28:26;0.45;;;0.40;;
9330;SDS011;4704;50.470;12.072;2023-03-05T09:30:55;0.52;;;0.43;;
9330;SDS011;4704;50.470;12.072;2023-03-05T09:33:23;0.63;;;0.40;;
9330;SDS011;4704;50.470;12.072;2023-03-05T09:35:50;1.25;;;0.40;;
9330;SDS011;4704;50.470;12.072;2023-03-05T09:38:17;1.27;;;0.47;;
9330;SDS011;4704;50.470;12.072;2023-03-05T09:40:47;1.77;;;0.60;;
9330;SDS011;4704;50.470;12.072;2023-03-05T09:43:21;0.30;;;0.30;;
9330;SDS011;4704;50.470;12.072;2023-03-05T09:45:57;0.40;;;0.40;;
9330;SDS011;4704;50.470;12.072;2023-03-05T09:48:29;0.40;;;0.40;;
9330;SDS011;4704;50.470;12.072;2023-03-05T09:51:00;0.77;;;0.47;;
9330;SDS011;4704;50.470;12.072;2023-03-05T09:53:30;0.75;;;0.40;;
9330;SDS011;4704;50.470;12.072;2023-03-05T09:56:02;0.50;;;0.35;;
9330;SDS011;4704;50.470;12.072;2023-03-05T09:58:32;1.00;;;0.50;;
9330;SDS011;4704;50.470;12.072;2023-03-05T10:01:02;0.75;;;0.40;;
9330;SDS011;4704;50.470;12.072;2023-03-05T10:03:33;0.40;;;0.40;;
9330;SDS011;4704;50.470;12.072;2023-03-05T10:06:04;0.40;;;0.40;;
9330;SDS011;4704;50.470;12.072;2023-03-05T10:08:36;1.20;;;0.45;;
9330;SDS011;4704;50.470;12.072;2023-03-05T10:11:09;0.90;;;0.55;;
9330;SDS011;4704;50.470;12.072;2023-03-05T10:13:42;1.52;;;0.40;;
9330;SDS011;4704;50.470;12.072;2023-03-05T10:16:20;1.83;;;0.40;;
9330;SDS011;4704;50.470;12.072;2023-03-05T10:18:54;1.60;;;0.40;;
9330;SDS011;4704;50.470;12.072;2023-03-05T10:21:26;1.50;;;0.45;;
9330;SDS011;4704;50.470;12.072;2023-03-05T10:23:59;1.23;;;0.50;;
9330;SDS011;4704;50.470;12.072;2023-03-05T10:26:30;0.40;;;0.32;;
9330;SDS011;4704;50.470;12.072;2023-03-05T10:29:05;1.58;;;0.55;;
9330;SDS011;4704;50.470;12.072;2023-03-05T10:31:42;1.95;;;1.00;;
9330;SDS011;4704;50.470;12.072;2023-03-05T10:34:16;9.05;;;6.30;;
9330;SDS011;4704;50.470;12.072;2023-03-05T10:36:54;7.90;;;5.60;;
9330;SDS011;4704;50.470;12.072;2023-03-05T10:42:12;7.85;;;4.90;;
9330;SDS011;4704;50.470;12.072;2023-03-05T10:44:43;7.10;;;4.72;;
9330;SDS011;4704;50.470;12.072;2023-03-05T10:47:15;7.00;;;4.88;;
9330;SDS011;4704;50.470;12.072;2023-03-05T10:49:47;6.22;;;4.63;;
9330;SDS011;4704;50.470;12.072;2023-03-05T10:52:16;6.57;;;4.88;;
9330;SDS011;4704;50.470;12.072;2023-03-05T10:54:46;5.90;;;4.57;;
9330;SDS011;4704;50.470;12.072;2023-03-05T10:57:15;6.68;;;4.15;;
9330;SDS011;4704;50.470;12.072;2023-03-05T10:59:45;7.55;;;5.43;;
9330;SDS011;4704;50.470;12.072;2023-03-05T11:02:14;10.55;;;9.15;;
9330;SDS011;4704;50.470;12.072;2023-03-05T11:04:42;13.98;;;11.27;;
9330;SDS011;4704;50.470;12.072;2023-03-05T11:07:33;11.82;;;10.50;;
9330;SDS011;4704;50.470;12.072;2023-03-05T11:12:44;10.63;;;9.43;;
9330;SDS011;4704;50.470;12.072;2023-03-05T11:15:22;10.70;;;8.43;;
9330;SDS011;4704;50.470;12.072;2023-03-05T11:20:49;9.35;;;8.18;;
9330;SDS011;4704;50.470;12.072;2023-03-05T11:23:18;10.18;;;8.45;;
9330;SDS011;4704;50.470;12.072;2023-03-05T11:25:50;10.27;;;8.13;;
9330;SDS011;4704;50.470;12.072;2023-03-05T11:28:18;8.23;;;7.40;;
9330;SDS011;4704;50.470;12.072;2023-03-05T11:30:53;8.82;;;7.65;;
9330;SDS011;4704;50.470;12.072;2023-03-05T11:33:21;9.15;;;8.20;;
9330;SDS011;4704;50.470;12.072;2023-03-05T11:35:51;10.98;;;8.38;;
9330;SDS011;4704;50.470;12.072;2023-03-05T11:38:20;9.88;;;7.10;;
9330;SDS011;4704;50.470;12.072;2023-03-05T11:40:49;10.27;;;7.70;;
9330;SDS011;4704;50.470;12.072;2023-03-05T11:43:18;11.10;;;8.00;;
9330;SDS011;4704;50.470;12.072;2023-03-05T11:45:46;9.48;;;7.13;;
9330;SDS011;4704;50.470;12.072;2023-03-05T11:48:17;9.57;;;6.40;;
9330;SDS011;4704;50.470;12.072;2023-03-05T11:50:46;11.10;;;6.65;;
9330;SDS011;4704;50.470;12.072;2023-03-05T11:53:19;8.63;;;6.32;;
9330;SDS011;4704;50.470;12.072;2023-03-05T11:55:48;7.78;;;6.28;;
9330;SDS011;4704;50.470;12.072;2023-03-05T11:58:26;9.68;;;6.22;;
9330;SDS011;4704;50.470;12.072;2023-03-05T12:00:55;7.35;;;6.07;;
9330;SDS011;4704;50.470;12.072;2023-03-05T12:03:23;9.35;;;5.82;;
9330;SDS011;4704;50.470;12.072;2023-03-05T12:05:52;6.97;;;5.60;;
9330;SDS011;4704;50.470;12.072;2023-03-05T12:08:23;9.68;;;5.80;;
9330;SDS011;4704;50.470;12.072;2023-03-05T12:10:52;6.88;;;5.28;;
9330;SDS011;4704;50.470;12.072;2023-03-05T12:13:22;7.43;;;5.30;;
9330;SDS011;4704;50.470;12.072;2023-03-05T12:15:58;6.85;;;5.30;;
9330;SDS011;4704;50.470;12.072;2023-03-05T12:18:31;8.35;;;5.40;;
9330;SDS011;4704;50.470;12.072;2023-03-05T12:21:01;8.02;;;6.30;;
9330;SDS011;4704;50.470;12.072;2023-03-05T12:23:44;9.23;;;6.30;;
9330;SDS011;4704;50.470;12.072;2023-03-05T12:26:12;6.95;;;5.65;;
9330;SDS011;4704;50.470;12.072;2023-03-05T12:31:34;7.40;;;5.57;;
9330;SDS011;4704;50.470;12.072;2023-03-05T12:36:45;8.20;;;5.00;;
9330;SDS011;4704;50.470;12.072;2023-03-05T12:42:00;7.70;;;4.60;;
9330;SDS011;4704;50.470;12.072;2023-03-05T12:44:54;8.20;;;4.55;;
9330;SDS011;4704;50.470;12.072;2023-03-05T12:47:43;8.38;;;4.15;;
9330;SDS011;4704;50.470;12.072;2023-03-05T12:52:54;30.38;;;27.00;;
9330;SDS011;4704;50.470;12.072;2023-03-05T12:55:22;29.20;;;26.35;;
9330;SDS011;4704;50.470;12.072;2023-03-05T12:57:54;29.30;;;26.27;;
9330;SDS011;4704;50.470;12.072;2023-03-05T13:00:24;28.05;;;24.63;;
9330;SDS011;4704;50.470;12.072;2023-03-05T13:02:53;24.83;;;22.35;;
9330;SDS011;4704;50.470;12.072;2023-03-05T13:05:24;24.45;;;20.80;;
9330;SDS011;4704;50.470;12.072;2023-03-05T13:07:52;21.45;;;19.30;;
9330;SDS011;4704;50.470;12.072;2023-03-05T13:10:20;21.33;;;18.75;;
9330;SDS011;4704;50.470;12.072;2023-03-05T13:12:48;19.80;;;17.85;;
9330;SDS011;4704;50.470;12.072;2023-03-05T13:15:18;18.10;;;16.17;;
9330;SDS011;4704;50.470;12.072;2023-03-05T13:17:49;18.23;;;16.25;;
9330;SDS011;4704;50.470;12.072;2023-03-05T13:20:26;18.23;;;15.65;;
9330;SDS011;4704;50.470;12.072;2023-03-05T13:25:40;15.15;;;13.57;;
9330;SDS011;4704;50.470;12.072;2023-03-05T13:28:10;14.10;;;12.60;;
9330;SDS011;4704;50.470;12.072;2023-03-05T13:30:41;13.40;;;12.00;;
9330;SDS011;4704;50.470;12.072;2023-03-05T13:33:12;13.57;;;12.07;;
9330;SDS011;4704;50.470;12.072;2023-03-05T13:35:43;14.15;;;11.10;;
9330;SDS011;4704;50.470;12.072;2023-03-05T13:38:14;14.45;;;10.75;;
9330;SDS011;4704;50.470;12.072;2023-03-05T13:40:59;11.98;;;10.32;;
9330;SDS011;4704;50.470;12.072;2023-03-05T13:43:27;11.63;;;9.40;;
9330;SDS011;4704;50.470;12.072;2023-03-05T13:45:56;10.00;;;8.90;;
9330;SDS011;4704;50.470;12.072;2023-03-05T13:48:24;10.93;;;8.98;;
9330;SDS011;4704;50.470;12.072;2023-03-05T13:50:53;10.05;;;8.23;;
9330;SDS011;4704;50.470;12.072;2023-03-05T13:53:22;9.10;;;7.70;;
9330;SDS011;4704;50.470;12.072;2023-03-05T13:55:50;8.75;;;7.85;;
9330;SDS011;4704;50.470;12.072;2023-03-05T14:01:11;11.30;;;7.40;;
9330;SDS011;4704;50.470;12.072;2023-03-05T14:03:39;8.93;;;6.60;;
9330;SDS011;4704;50.470;12.072;2023-03-05T14:06:07;7.85;;;6.50;;
9330;SDS011;4704;50.470;12.072;2023-03-05T14:08:35;9.48;;;6.88;;
9330;SDS011;4704;50.470;12.072;2023-03-05T14:11:12;10.95;;;6.38;;
9330;SDS011;4704;50.470;12.072;2023-03-05T14:13:40;8.27;;;5.85;;
9330;SDS011;4704;50.470;12.072;2023-03-05T14:16:10;6.93;;;5.43;;
9330;SDS011;4704;50.470;12.072;2023-03-05T14:18:39;8.82;;;5.78;;
9330;SDS011;4704;50.470;12.072;2023-03-05T14:21:17;6.25;;;5.05;;
9330;SDS011;4704;50.470;12.072;2023-03-05T14:23:45;6.32;;;4.90;;
9330;SDS011;4704;50.470;12.072;2023-03-05T14:26:26;7.95;;;5.07;;
9330;SDS011;4704;50.470;12.072;2023-03-05T14:28:54;8.00;;;4.57;;
9330;SDS011;4704;50.470;12.072;2023-03-05T14:31:24;7.40;;;4.57;;
9330;SDS011;4704;50.470;12.072;2023-03-05T14:33:52;6.10;;;4.60;;
9330;SDS011;4704;50.470;12.072;2023-03-05T14:36:22;5.72;;;4.03;;
9330;SDS011;4704;50.470;12.072;2023-03-05T14:38:50;6.50;;;4.18;;
9330;SDS011;4704;50.470;12.072;2023-03-05T14:41:27;7.22;;;4.25;;
9330;SDS011;4704;50.470;12.072;2023-03-05T14:43:58;5.43;;;4.07;;
9330;SDS011;4704;50.470;12.072;2023-03-05T14:46:28;4.63;;;3.85;;
9330;SDS011;4704;50.470;12.072;2023-03-05T14:48:55;4.35;;;3.50;;
9330;SDS011;4704;50.470;12.072;2023-03-05T14:51:23;6.75;;;3.47;;
9330;SDS011;4704;50.470;12.072;2023-03-05T14:53:51;3.70;;;3.40;;
9330;SDS011;4704;50.470;12.072;2023-03-05T14:56:21;5.15;;;3.67;;
9330;SDS011;4704;50.470;12.072;2023-03-05T14:58:49;3.70;;;3.30;;
9330;SDS011;4704;50.470;12.072;2023-03-05T15:01:16;4.43;;;3.28;;
9330;SDS011;4704;50.470;12.072;2023-03-05T15:03:45;4.65;;;3.40;;
9330;SDS011;4704;50.470;12.072;2023-03-05T15:06:14;4.88;;;3.08;;
9330;SDS011;4704;50.470;12.072;2023-03-05T15:08:44;4.00;;;3.00;;
9330;SDS011;4704;50.470;12.072;2023-03-05T15:11:11;5.95;;;2.92;;
9330;SDS011;4704;50.470;12.072;2023-03-05T15:13:39;3.83;;;2.92;;
9330;SDS011;4704;50.470;12.072;2023-03-05T15:16:06;3.00;;;2.70;;
9330;SDS011;4704;50.470;12.072;2023-03-05T15:18:34;3.33;;;3.00;;
9330;SDS011;4704;50.470;12.072;2023-03-05T15:21:03;4.78;;;2.67;;
9330;SDS011;4704;50.470;12.072;2023-03-05T15:23:31;5.72;;;2.53;;
9330;SDS011;4704;50.470;12.072;2023-03-05T15:26:03;3.92;;;2.58;;
9330;SDS011;4704;50.470;12.072;2023-03-05T15:28:31;5.30;;;2.95;;
9330;SDS011;4704;50.470;12.072;2023-03-05T15:31:00;3.17;;;2.50;;
9330;SDS011;4704;50.470;12.072;2023-03-05T15:33:28;3.22;;;2.28;;
9330;SDS011;4704;50.470;12.072;2023-03-05T15:35:56;2.70;;;2.50;;
9330;SDS011;4704;50.470;12.072;2023-03-05T15:38:24;3.90;;;2.53;;